sensor_id;sensor_type;location;lat;lon;timestamp;pressure;altitude;pressure_sealevel;temperature;humidity
83691;BME280;73671;43.220;0.064;2024-01-11T00:00:35;98346.78;;;4.65;68.86
83691;BME280;73671;43.220;0.064;2024-01-11T00:03:01;98346.00;;;4.65;69.29
83691;BME280;73671;43.220;0.064;2024-01-11T00:05:26;98347.53;;;4.66;69.25
83691;BME280;73671;43.220;0.064;2024-01-11T00:07:52;98354.47;;;4.67;68.77
83691;BME280;73671;43.220;0.064;2024-01-11T00:10:17;98349.06;;;4.67;69.12
83691;BME280;73671;43.220;0.064;2024-01-11T00:12:43;98348.31;;;4.63;69.44
83691;BME280;73671;43.220;0.064;2024-01-11T00:15:08;98364.88;;;4.65;68.71
83691;BME280;73671;43.220;0.064;2024-01-11T00:17:34;98364.50;;;4.63;69.27
83691;BME280;73671;43.220;0.064;2024-01-11T00:20:00;98362.19;;;4.61;69.63
83691;BME280;73671;43.220;0.064;2024-01-11T00:22:25;98354.47;;;4.60;69.55
83691;BME280;73671;43.220;0.064;2024-01-11T00:24:51;98359.47;;;4.58;68.91
83691;BME280;73671;43.220;0.064;2024-01-11T00:27:16;98359.88;;;4.60;69.45
83691;BME280;73671;43.220;0.064;2024-01-11T00:29:42;98350.63;;;4.61;68.78
83691;BME280;73671;43.220;0.064;2024-01-11T00:32:07;98362.94;;;4.62;69.32
83691;BME280;73671;43.220;0.064;2024-01-11T00:34:33;98363.72;;;4.59;68.95
83691;BME280;73671;43.220;0.064;2024-01-11T00:36:58;98365.25;;;4.53;69.25
83691;BME280;73671;43.220;0.064;2024-01-11T00:39:23;98369.13;;;4.52;68.20
83691;BME280;73671;43.220;0.064;2024-01-11T00:41:49;98358.31;;;4.48;68.72
83691;BME280;73671;43.220;0.064;2024-01-11T00:44:16;98362.16;;;4.51;68.69
83691;BME280;73671;43.220;0.064;2024-01-11T00:46:41;98367.56;;;4.47;68.69
83691;BME280;73671;43.220;0.064;2024-01-11T00:49:07;98369.13;;;4.44;68.99
83691;BME280;73671;43.220;0.064;2024-01-11T00:51:32;98370.66;;;4.35;69.30
83691;BME280;73671;43.220;0.064;2024-01-11T00:53:58;98376.03;;;4.31;69.00
83691;BME280;73671;43.220;0.064;2024-01-11T00:56:23;98364.09;;;4.25;69.45
83691;BME280;73671;43.220;0.064;2024-01-11T00:58:48;98379.88;;;4.30;69.15
83691;BME280;73671;43.220;0.064;2024-01-11T01:01:14;98368.31;;;4.33;68.73
83691;BME280;73671;43.220;0.064;2024-01-11T01:03:39;98370.63;;;4.31;68.86
83691;BME280;73671;43.220;0.064;2024-01-11T01:06:05;98369.09;;;4.30;68.42
83691;BME280;73671;43.220;0.064;2024-01-11T01:08:31;98376.03;;;4.31;68.81
83691;BME280;73671;43.220;0.064;2024-01-11T01:10:56;98376.41;;;4.33;68.87
83691;BME280;73671;43.220;0.064;2024-01-11T01:13:22;98383.72;;;4.36;68.57
83691;BME280;73671;43.220;0.064;2024-01-11T01:15:47;98381.44;;;4.35;68.76
83691;BME280;73671;43.220;0.064;2024-01-11T01:18:13;98388.75;;;4.34;68.21
83691;BME280;73671;43.220;0.064;2024-01-11T01:20:38;98396.06;;;4.30;68.41
83691;BME280;73671;43.220;0.064;2024-01-11T01:23:04;98395.28;;;4.26;68.61
83691;BME280;73671;43.220;0.064;2024-01-11T01:25:29;98392.19;;;4.24;69.31
83691;BME280;73671;43.220;0.064;2024-01-11T01:27:55;98396.03;;;4.27;68.65
83691;BME280;73671;43.220;0.064;2024-01-11T01:30:21;98405.28;;;4.29;68.71
83691;BME280;73671;43.220;0.064;2024-01-11T01:32:46;98398.75;;;4.30;68.60
83691;BME280;73671;43.220;0.064;2024-01-11T01:35:12;98401.84;;;4.32;68.59
83691;BME280;73671;43.220;0.064;2024-01-11T01:37:37;98413.34;;;4.18;68.93
83691;BME280;73671;43.220;0.064;2024-01-11T01:40:03;98406.03;;;4.19;68.38
83691;BME280;73671;43.220;0.064;2024-01-11T01:42:28;98414.50;;;4.21;68.15
83691;BME280;73671;43.220;0.064;2024-01-11T01:44:54;98416.81;;;4.19;68.79
83691;BME280;73671;43.220;0.064;2024-01-11T01:47:19;98419.88;;;4.10;68.89
83691;BME280;73671;43.220;0.064;2024-01-11T01:49:46;98422.16;;;4.04;68.46
83691;BME280;73671;43.220;0.064;2024-01-11T01:52:14;98421.41;;;4.08;68.87
83691;BME280;73671;43.220;0.064;2024-01-11T01:54:39;98420.63;;;4.07;68.38
83691;BME280;73671;43.220;0.064;2024-01-11T01:57:06;98421.41;;;4.08;68.72
83691;BME280;73671;43.220;0.064;2024-01-11T01:59:32;98419.09;;;4.10;68.97
83691;BME280;73671;43.220;0.064;2024-01-11T02:01:58;98419.88;;;4.10;68.75
83691;BME280;73671;43.220;0.064;2024-01-11T02:04:24;98419.88;;;4.07;68.63
83691;BME280;73671;43.220;0.064;2024-01-11T02:06:51;98422.19;;;4.08;68.61
83691;BME280;73671;43.220;0.064;2024-01-11T02:09:18;98426.78;;;4.08;69.11
83691;BME280;73671;43.220;0.064;2024-01-11T02:11:44;98427.56;;;4.12;68.57
83691;BME280;73671;43.220;0.064;2024-01-11T02:14:10;98429.09;;;4.13;68.90
83691;BME280;73671;43.220;0.064;2024-01-11T02:16:36;98433.72;;;4.05;68.89
83691;BME280;73671;43.220;0.064;2024-01-11T02:19:03;98431.41;;;4.03;68.56
83691;BME280;73671;43.220;0.064;2024-01-11T02:21:30;98439.09;;;4.05;68.20
83691;BME280;73671;43.220;0.064;2024-01-11T02:24:07;98429.06;;;3.98;68.74
83691;BME280;73671;43.220;0.064;2024-01-11T02:26:33;98433.72;;;4.01;68.43
83691;BME280;73671;43.220;0.064;2024-01-11T02:28:58;98443.69;;;4.01;68.53
83691;BME280;73671;43.220;0.064;2024-01-11T02:31:24;98441.03;;;4.04;68.60
83691;BME280;73671;43.220;0.064;2024-01-11T02:33:53;98444.50;;;4.01;68.33
83691;BME280;73671;43.220;0.064;2024-01-11T02:36:20;98455.97;;;3.91;69.14
83691;BME280;73671;43.220;0.064;2024-01-11T02:38:46;98446.78;;;3.99;68.75
83691;BME280;73671;43.220;0.064;2024-01-11T02:41:11;98442.19;;;4.03;67.98
83691;BME280;73671;43.220;0.064;2024-01-11T02:43:38;98443.72;;;4.04;68.51
83691;BME280;73671;43.220;0.064;2024-01-11T02:46:05;98447.91;;;3.98;68.79
83691;BME280;73671;43.220;0.064;2024-01-11T02:48:31;98440.22;;;3.93;68.42
83691;BME280;73671;43.220;0.064;2024-01-11T02:50:57;98438.84;;;3.48;70.23
83691;BME280;73671;43.220;0.064;2024-01-11T02:53:22;98442.69;;;3.47;70.47
83691;BME280;73671;43.220;0.064;2024-01-11T02:55:49;98434.69;;;3.61;69.06
83691;BME280;73671;43.220;0.064;2024-01-11T02:58:15;98434.69;;;3.65;68.84
83691;BME280;73671;43.220;0.064;2024-01-11T03:00:40;98437.47;;;3.75;69.38
83691;BME280;73671;43.220;0.064;2024-01-11T03:03:05;98439.78;;;3.84;68.78
83691;BME280;73671;43.220;0.064;2024-01-11T03:05:31;98428.66;;;3.89;68.08
83691;BME280;73671;43.220;0.064;2024-01-11T03:07:56;98425.97;;;3.93;68.81
83691;BME280;73671;43.220;0.064;2024-01-11T03:10:21;98432.16;;;3.97;68.54
83691;BME280;73671;43.220;0.064;2024-01-11T03:12:47;98432.16;;;4.00;68.21
83691;BME280;73671;43.220;0.064;2024-01-11T03:15:14;98428.31;;;4.01;67.71
83691;BME280;73671;43.220;0.064;2024-01-11T03:17:40;98440.63;;;4.02;68.25
83691;BME280;73671;43.220;0.064;2024-01-11T03:20:06;98438.34;;;4.04;68.03
83691;BME280;73671;43.220;0.064;2024-01-11T03:22:31;98430.25;;;4.04;67.91
83691;BME280;73671;43.220;0.064;2024-01-11T03:24:57;98430.66;;;4.07;68.42
83691;BME280;73671;43.220;0.064;2024-01-11T03:27:22;98438.72;;;4.07;68.07
83691;BME280;73671;43.220;0.064;2024-01-11T03:29:47;98443.72;;;4.04;67.95
83691;BME280;73671;43.220;0.064;2024-01-11T03:32:14;98440.25;;;4.08;68.15
83691;BME280;73671;43.220;0.064;2024-01-11T03:34:40;98439.13;;;4.09;68.14
83691;BME280;73671;43.220;0.064;2024-01-11T03:37:05;98443.31;;;4.02;68.70
83691;BME280;73671;43.220;0.064;2024-01-11T03:39:30;98442.91;;;3.93;68.20
83691;BME280;73671;43.220;0.064;2024-01-11T03:41:56;98437.91;;;3.95;68.51
83691;BME280;73671;43.220;0.064;2024-01-11T03:44:22;98438.69;;;3.92;68.04
83691;BME280;73671;43.220;0.064;2024-01-11T03:46:47;98437.50;;;3.93;67.98
83691;BME280;73671;43.220;0.064;2024-01-11T03:49:13;98440.59;;;3.85;68.47
83691;BME280;73671;43.220;0.064;2024-01-11T03:51:38;98444.06;;;3.92;68.49
83691;BME280;73671;43.220;0.064;2024-01-11T03:54:03;98447.53;;;3.89;67.89
83691;BME280;73671;43.220;0.064;2024-01-11T03:56:29;98450.16;;;3.78;68.72
83691;BME280;73671;43.220;0.064;2024-01-11T03:58:54;98452.88;;;3.86;68.24
83691;BME280;73671;43.220;0.064;2024-01-11T04:01:20;98445.97;;;3.88;67.45
83691;BME280;73671;43.220;0.064;2024-01-11T04:03:45;98449.06;;;3.94;67.89
83691;BME280;73671;43.220;0.064;2024-01-11T04:06:21;98459.84;;;3.90;66.97
83691;BME280;73671;43.220;0.064;2024-01-11T04:08:48;98459.03;;;3.86;68.22
83691;BME280;73671;43.220;0.064;2024-01-11T04:11:14;98459.03;;;3.86;67.76
83691;BME280;73671;43.220;0.064;2024-01-11T04:13:39;98460.59;;;3.87;67.29
83691;BME280;73671;43.220;0.064;2024-01-11T04:16:08;98457.53;;;3.92;67.40
83691;BME280;73671;43.220;0.064;2024-01-11T04:18:33;98444.47;;;3.94;68.00
83691;BME280;73671;43.220;0.064;2024-01-11T04:20:59;98450.63;;;3.95;67.67
83691;BME280;73671;43.220;0.064;2024-01-11T04:23:24;98449.84;;;3.94;67.72
83691;BME280;73671;43.220;0.064;2024-01-11T04:25:50;98455.63;;;3.96;67.98
83691;BME280;73671;43.220;0.064;2024-01-11T04:28:16;98450.63;;;3.98;67.06
83691;BME280;73671;43.220;0.064;2024-01-11T04:30:42;98451.78;;;4.01;67.29
83691;BME280;73671;43.220;0.064;2024-01-11T04:33:07;98454.88;;;3.99;67.24
83691;BME280;73671;43.220;0.064;2024-01-11T04:35:33;98455.63;;;4.00;67.52
83691;BME280;73671;43.220;0.064;2024-01-11T04:37:58;98458.34;;;4.00;66.51
83691;BME280;73671;43.220;0.064;2024-01-11T04:40:23;98450.63;;;3.98;66.29
83691;BME280;73671;43.220;0.064;2024-01-11T04:42:49;98454.47;;;3.97;66.41
83691;BME280;73671;43.220;0.064;2024-01-11T04:45:14;98459.88;;;3.97;67.25
83691;BME280;73671;43.220;0.064;2024-01-11T04:47:40;98449.09;;;3.97;67.16
83691;BME280;73671;43.220;0.064;2024-01-11T04:50:06;98452.19;;;3.99;67.04
83691;BME280;73671;43.220;0.064;2024-01-11T04:52:32;98462.97;;;3.99;66.96
83691;BME280;73671;43.220;0.064;2024-01-11T04:54:57;98466.81;;;4.02;67.14
83691;BME280;73671;43.220;0.064;2024-01-11T04:57:22;98466.03;;;4.05;67.11
83691;BME280;73671;43.220;0.064;2024-01-11T04:59:48;98456.03;;;4.06;67.46
83691;BME280;73671;43.220;0.064;2024-01-11T05:02:13;98469.13;;;4.07;67.59
83691;BME280;73671;43.220;0.064;2024-01-11T05:04:39;98459.91;;;4.08;67.18
83691;BME280;73671;43.220;0.064;2024-01-11T05:07:04;98463.72;;;3.96;67.52
83691;BME280;73671;43.220;0.064;2024-01-11T05:09:29;98468.28;;;3.85;68.22
83691;BME280;73671;43.220;0.064;2024-01-11T05:11:55;98469.84;;;3.93;67.20
83691;BME280;73671;43.220;0.064;2024-01-11T05:14:20;98472.16;;;3.98;67.04
83691;BME280;73671;43.220;0.064;2024-01-11T05:16:45;98466.03;;;4.01;67.37
83691;BME280;73671;43.220;0.064;2024-01-11T05:19:11;98464.50;;;4.00;67.21
83691;BME280;73671;43.220;0.064;2024-01-11T05:21:36;98462.97;;;3.99;67.46
83691;BME280;73671;43.220;0.064;2024-01-11T05:24:01;98458.22;;;3.75;67.40
83691;BME280;73671;43.220;0.064;2024-01-11T05:26:27;98458.91;;;3.57;68.41
83691;BME280;73671;43.220;0.064;2024-01-11T05:28:52;98451.91;;;3.42;69.07
83691;BME280;73671;43.220;0.064;2024-01-11T05:31:18;98451.84;;;3.35;69.08
83691;BME280;73671;43.220;0.064;2024-01-11T05:33:44;98450.34;;;3.41;68.54
83691;BME280;73671;43.220;0.064;2024-01-11T05:36:10;98446.16;;;3.47;68.26
83691;BME280;73671;43.220;0.064;2024-01-11T05:38:39;98453.13;;;3.55;68.63
83691;BME280;73671;43.220;0.064;2024-01-11T05:41:05;98454.22;;;3.47;68.23
83691;BME280;73671;43.220;0.064;2024-01-11T05:43:30;98449.25;;;3.49;68.40
83691;BME280;73671;43.220;0.064;2024-01-11T05:45:55;98458.91;;;3.57;68.65
83691;BME280;73671;43.220;0.064;2024-01-11T05:48:21;98465.47;;;3.64;67.86
83691;BME280;73671;43.220;0.064;2024-01-11T05:50:46;98473.19;;;3.69;67.71
83691;BME280;73671;43.220;0.064;2024-01-11T05:53:12;98480.53;;;3.72;68.46
83691;BME280;73671;43.220;0.064;2024-01-11T05:55:38;98481.69;;;3.74;68.38
83691;BME280;73671;43.220;0.064;2024-01-11T05:58:03;98482.84;;;3.77;67.81
83691;BME280;73671;43.220;0.064;2024-01-11T06:00:29;98485.19;;;3.78;67.95
83691;BME280;73671;43.220;0.064;2024-01-11T06:02:54;98492.09;;;3.76;68.38
83691;BME280;73671;43.220;0.064;2024-01-11T06:05:20;98469.72;;;3.65;67.97
83691;BME280;73671;43.220;0.064;2024-01-11T06:07:45;98470.47;;;3.61;68.33
83691;BME280;73671;43.220;0.064;2024-01-11T06:10:11;98483.53;;;3.59;68.36
83691;BME280;73671;43.220;0.064;2024-01-11T06:12:36;98487.44;;;3.66;67.96
83691;BME280;73671;43.220;0.064;2024-01-11T06:15:02;98483.97;;;3.69;68.50
83691;BME280;73671;43.220;0.064;2024-01-11T06:17:28;98488.22;;;3.73;68.26
83691;BME280;73671;43.220;0.064;2024-01-11T06:19:53;98479.75;;;3.75;68.22
83691;BME280;73671;43.220;0.064;2024-01-11T06:22:19;98476.63;;;3.58;68.77
83691;BME280;73671;43.220;0.064;2024-01-11T06:24:45;98483.50;;;3.52;68.30
83691;BME280;73671;43.220;0.064;2024-01-11T06:27:10;98488.09;;;3.52;68.73
83691;BME280;73671;43.220;0.064;2024-01-11T06:29:36;98491.22;;;3.57;68.55
83691;BME280;73671;43.220;0.064;2024-01-11T06:32:01;98487.38;;;3.58;68.12
83691;BME280;73671;43.220;0.064;2024-01-11T06:34:27;98492.00;;;3.61;68.37
83691;BME280;73671;43.220;0.064;2024-01-11T06:36:54;98499.72;;;3.67;68.47
83691;BME280;73671;43.220;0.064;2024-01-11T06:39:19;98509.75;;;3.70;68.48
83691;BME280;73671;43.220;0.064;2024-01-11T06:41:45;98506.69;;;3.71;68.56
83691;BME280;73671;43.220;0.064;2024-01-11T06:44:10;98510.53;;;3.70;68.02
83691;BME280;73671;43.220;0.064;2024-01-11T06:46:35;98511.31;;;3.71;68.31
83691;BME280;73671;43.220;0.064;2024-01-11T06:49:07;98525.94;;;3.77;68.17
83691;BME280;73671;43.220;0.064;2024-01-11T06:51:33;98521.34;;;3.81;67.64
83691;BME280;73671;43.220;0.064;2024-01-11T06:53:59;98515.97;;;3.81;67.95
83691;BME280;73671;43.220;0.064;2024-01-11T06:56:26;98529.44;;;3.81;68.50
83691;BME280;73671;43.220;0.064;2024-01-11T06:58:52;98527.50;;;3.78;68.51
83691;BME280;73671;43.220;0.064;2024-01-11T07:01:17;98523.66;;;3.79;68.08
83691;BME280;73671;43.220;0.064;2024-01-11T07:03:43;98536.31;;;3.75;68.62
83691;BME280;73671;43.220;0.064;2024-01-11T07:06:09;98535.53;;;3.71;69.17
83691;BME280;73671;43.220;0.064;2024-01-11T07:08:35;98539.00;;;3.75;68.50
83691;BME280;73671;43.220;0.064;2024-01-11T07:11:00;98535.53;;;3.71;68.17
83691;BME280;73671;43.220;0.064;2024-01-11T07:13:31;98541.31;;;3.73;68.32
83691;BME280;73671;43.220;0.064;2024-01-11T07:15:57;98549.06;;;3.78;68.58
83691;BME280;73671;43.220;0.064;2024-01-11T07:18:26;98546.75;;;3.80;68.52
83691;BME280;73671;43.220;0.064;2024-01-11T07:20:52;98549.06;;;3.81;68.43
83691;BME280;73671;43.220;0.064;2024-01-11T07:23:18;98549.44;;;3.80;68.75
83691;BME280;73671;43.220;0.064;2024-01-11T07:25:43;98546.00;;;3.83;68.47
83691;BME280;73671;43.220;0.064;2024-01-11T07:28:09;98555.25;;;3.82;68.53
83691;BME280;73671;43.220;0.064;2024-01-11T07:30:34;98553.28;;;3.79;68.43
83691;BME280;73671;43.220;0.064;2024-01-11T07:33:00;98548.28;;;3.81;67.58
83691;BME280;73671;43.220;0.064;2024-01-11T07:35:26;98553.69;;;3.81;67.83
83691;BME280;73671;43.220;0.064;2024-01-11T07:37:51;98557.94;;;3.82;68.04
83691;BME280;73671;43.220;0.064;2024-01-11T07:40:17;98565.25;;;3.85;68.31
83691;BME280;73671;43.220;0.064;2024-01-11T07:42:42;98564.50;;;3.88;68.09
83691;BME280;73671;43.220;0.064;2024-01-11T07:45:09;98577.22;;;3.91;67.97
83691;BME280;73671;43.220;0.064;2024-01-11T07:47:39;98571.81;;;3.91;68.39
83691;BME280;73671;43.220;0.064;2024-01-11T07:50:05;98571.44;;;3.89;68.31
83691;BME280;73671;43.220;0.064;2024-01-11T07:52:37;98574.16;;;3.89;68.62
83691;BME280;73671;43.220;0.064;2024-01-11T07:55:04;98569.91;;;3.92;68.36
83691;BME280;73671;43.220;0.064;2024-01-11T07:57:36;98571.81;;;3.91;67.55
83691;BME280;73671;43.220;0.064;2024-01-11T08:00:02;98571.44;;;3.89;67.68
83691;BME280;73671;43.220;0.064;2024-01-11T08:02:29;98571.44;;;3.89;68.13
83691;BME280;73671;43.220;0.064;2024-01-11T08:04:55;98579.84;;;3.84;68.31
83691;BME280;73671;43.220;0.064;2024-01-11T08:07:20;98576.66;;;3.68;69.17
83691;BME280;73671;43.220;0.064;2024-01-11T08:09:46;98588.13;;;3.57;69.33
83691;BME280;73671;43.220;0.064;2024-01-11T08:12:12;98592.66;;;3.46;69.66
83691;BME280;73671;43.220;0.064;2024-01-11T08:14:38;98588.84;;;3.47;69.66
83691;BME280;73671;43.220;0.064;2024-01-11T08:17:04;98584.22;;;3.44;69.45
83691;BME280;73671;43.220;0.064;2024-01-11T08:19:30;98594.16;;;3.40;70.07
83691;BME280;73671;43.220;0.064;2024-01-11T08:21:56;98600.13;;;3.23;70.73
83691;BME280;73671;43.220;0.064;2024-01-11T08:24:22;98597.25;;;3.42;69.98
83691;BME280;73671;43.220;0.064;2024-01-11T08:26:47;98601.06;;;3.37;70.25
83691;BME280;73671;43.220;0.064;2024-01-11T08:29:15;98598.72;;;3.36;70.35
83691;BME280;73671;43.220;0.064;2024-01-11T08:31:41;98600.69;;;3.39;69.95
83691;BME280;73671;43.220;0.064;2024-01-11T08:34:08;98607.34;;;3.52;69.64
83691;BME280;73671;43.220;0.064;2024-01-11T08:36:35;98608.97;;;3.64;69.18
83691;BME280;73671;43.220;0.064;2024-01-11T08:39:07;98618.50;;;3.54;70.11
83691;BME280;73671;43.220;0.064;2024-01-11T08:41:36;98610.50;;;3.61;69.54
83691;BME280;73671;43.220;0.064;2024-01-11T08:44:03;98618.28;;;3.74;69.31
83691;BME280;73671;43.220;0.064;2024-01-11T08:46:31;98616.03;;;3.83;69.38
83691;BME280;73671;43.220;0.064;2024-01-11T08:48:58;98621.88;;;3.92;68.95
83691;BME280;73671;43.220;0.064;2024-01-11T08:51:24;98626.56;;;4.02;68.83
83691;BME280;73671;43.220;0.064;2024-01-11T08:53:49;98630.38;;;3.98;69.30
83691;BME280;73671;43.220;0.064;2024-01-11T08:56:14;98634.53;;;3.88;69.51
83691;BME280;73671;43.220;0.064;2024-01-11T08:58:42;98623.41;;;3.90;69.21
83691;BME280;73671;43.220;0.064;2024-01-11T09:01:07;98627.63;;;3.87;68.75
83691;BME280;73671;43.220;0.064;2024-01-11T09:03:36;98631.53;;;4.00;68.39
83691;BME280;73671;43.220;0.064;2024-01-11T09:06:02;98635.56;;;4.28;68.46
83691;BME280;73671;43.220;0.064;2024-01-11T09:08:28;98633.03;;;4.57;67.76
83691;BME280;73671;43.220;0.064;2024-01-11T09:10:55;98641.22;;;4.82;67.45
83691;BME280;73671;43.220;0.064;2024-01-11T09:13:20;98639.75;;;5.06;66.96
83691;BME280;73671;43.220;0.064;2024-01-11T09:15:46;98636.69;;;5.22;66.46
83691;BME280;73671;43.220;0.064;2024-01-11T09:18:11;98642.91;;;5.37;66.22
83691;BME280;73671;43.220;0.064;2024-01-11T09:20:37;98640.59;;;5.46;65.51
83691;BME280;73671;43.220;0.064;2024-01-11T09:23:02;98637.91;;;5.49;65.22
83691;BME280;73671;43.220;0.064;2024-01-11T09:25:31;98639.84;;;5.49;64.03
83691;BME280;73671;43.220;0.064;2024-01-11T09:27:57;98643.69;;;5.55;64.47
83691;BME280;73671;43.220;0.064;2024-01-11T09:30:22;98648.72;;;5.57;64.13
83691;BME280;73671;43.220;0.064;2024-01-11T09:32:47;98653.72;;;5.55;63.77
83691;BME280;73671;43.220;0.064;2024-01-11T09:35:13;98653.31;;;5.52;64.62
83691;BME280;73671;43.220;0.064;2024-01-11T09:37:39;98659.91;;;5.51;64.34
83691;BME280;73671;43.220;0.064;2024-01-11T09:40:05;98660.66;;;5.52;63.66
83691;BME280;73671;43.220;0.064;2024-01-11T09:42:38;98652.97;;;5.50;64.20
83691;BME280;73671;43.220;0.064;2024-01-11T09:45:09;98662.97;;;5.46;64.26
83691;BME280;73671;43.220;0.064;2024-01-11T09:47:36;98669.16;;;5.47;63.78
83691;BME280;73671;43.220;0.064;2024-01-11T09:50:05;98664.53;;;5.44;63.88
83691;BME280;73671;43.220;0.064;2024-01-11T09:52:31;98662.22;;;5.39;64.05
83691;BME280;73671;43.220;0.064;2024-01-11T09:54:58;98666.41;;;5.36;63.88
83691;BME280;73671;43.220;0.064;2024-01-11T09:57:32;98666.84;;;5.42;63.44
83691;BME280;73671;43.220;0.064;2024-01-11T09:59:58;98669.56;;;5.56;63.89
83691;BME280;73671;43.220;0.064;2024-01-11T10:02:24;98672.25;;;5.74;63.39
83691;BME280;73671;43.220;0.064;2024-01-11T10:04:52;98673.06;;;5.96;63.54
83691;BME280;73671;43.220;0.064;2024-01-11T10:07:19;98681.94;;;6.18;63.10
83691;BME280;73671;43.220;0.064;2024-01-11T10:09:47;98680.34;;;6.42;62.78
83691;BME280;73671;43.220;0.064;2024-01-11T10:12:12;98664.38;;;6.80;62.93
83691;BME280;73671;43.220;0.064;2024-01-11T10:14:38;98672.69;;;7.29;61.49
83691;BME280;73671;43.220;0.064;2024-01-11T10:17:04;98678.78;;;7.43;60.26
83691;BME280;73671;43.220;0.064;2024-01-11T10:19:30;98676.03;;;7.51;58.63
83691;BME280;73671;43.220;0.064;2024-01-11T10:21:57;98681.06;;;7.52;59.10
83691;BME280;73671;43.220;0.064;2024-01-11T10:24:23;98685.69;;;7.52;58.50
83691;BME280;73671;43.220;0.064;2024-01-11T10:26:52;98685.72;;;7.48;58.25
83691;BME280;73671;43.220;0.064;2024-01-11T10:29:20;98681.13;;;7.41;58.10
83691;BME280;73671;43.220;0.064;2024-01-11T10:31:45;98679.59;;;7.37;58.67
83691;BME280;73671;43.220;0.064;2024-01-11T10:34:11;98678.88;;;7.26;58.67
83691;BME280;73671;43.220;0.064;2024-01-11T10:36:36;98686.69;;;7.09;58.07
83691;BME280;73671;43.220;0.064;2024-01-11T10:39:02;98687.09;;;7.08;58.71
83691;BME280;73671;43.220;0.064;2024-01-11T10:41:32;98685.19;;;7.01;58.65
83691;BME280;73671;43.220;0.064;2024-01-11T10:44:03;98686.75;;;6.95;59.04
83691;BME280;73671;43.220;0.064;2024-01-11T10:46:31;98679.03;;;6.93;59.18
83691;BME280;73671;43.220;0.064;2024-01-11T10:49:02;98678.28;;;6.89;58.23
83691;BME280;73671;43.220;0.064;2024-01-11T10:51:31;98670.22;;;6.75;58.67
83691;BME280;73671;43.220;0.064;2024-01-11T10:53:59;98677.56;;;6.71;59.24
83691;BME280;73671;43.220;0.064;2024-01-11T10:56:26;98677.59;;;6.64;59.13
83691;BME280;73671;43.220;0.064;2024-01-11T10:58:54;98682.22;;;6.59;58.34
83691;BME280;73671;43.220;0.064;2024-01-11T11:01:20;98673.75;;;6.57;59.67
83691;BME280;73671;43.220;0.064;2024-01-11T11:03:47;98671.41;;;6.59;58.95
83691;BME280;73671;43.220;0.064;2024-01-11T11:06:13;98670.25;;;6.61;59.48
83691;BME280;73671;43.220;0.064;2024-01-11T11:08:40;98668.28;;;6.72;59.69
83691;BME280;73671;43.220;0.064;2024-01-11T11:11:05;98679.03;;;6.93;59.29
83691;BME280;73671;43.220;0.064;2024-01-11T11:13:32;98677.41;;;7.10;58.41
83691;BME280;73671;43.220;0.064;2024-01-11T11:15:57;98680.00;;;7.32;57.94
83691;BME280;73671;43.220;0.064;2024-01-11T11:18:23;98677.88;;;7.64;57.54
83691;BME280;73671;43.220;0.064;2024-01-11T11:20:50;98678.91;;;8.26;56.96
83691;BME280;73671;43.220;0.064;2024-01-11T11:23:17;98674.09;;;8.83;56.24
83691;BME280;73671;43.220;0.064;2024-01-11T11:25:45;98685.06;;;9.06;54.53
83691;BME280;73671;43.220;0.064;2024-01-11T11:28:15;98678.84;;;9.06;54.31
83691;BME280;73671;43.220;0.064;2024-01-11T11:30:42;98680.09;;;8.63;53.25
83691;BME280;73671;43.220;0.064;2024-01-11T11:33:16;98674.41;;;8.09;54.41
83691;BME280;73671;43.220;0.064;2024-01-11T11:35:42;98677.88;;;7.61;51.61
83691;BME280;73671;43.220;0.064;2024-01-11T11:38:08;98674.03;;;7.58;53.16
83691;BME280;73671;43.220;0.064;2024-01-11T11:40:36;98667.78;;;7.65;53.30
83691;BME280;73671;43.220;0.064;2024-01-11T11:43:04;98670.94;;;7.60;53.03
83691;BME280;73671;43.220;0.064;2024-01-11T11:45:30;98664.00;;;7.52;54.48
83691;BME280;73671;43.220;0.064;2024-01-11T11:47:57;98662.47;;;7.51;55.10
83691;BME280;73671;43.220;0.064;2024-01-11T11:50:22;98652.50;;;7.40;54.71
83691;BME280;73671;43.220;0.064;2024-01-11T11:52:54;98648.59;;;7.41;55.49
83691;BME280;73671;43.220;0.064;2024-01-11T11:55:25;98648.94;;;7.47;55.13
83691;BME280;73671;43.220;0.064;2024-01-11T11:57:51;98659.44;;;7.41;54.63
83691;BME280;73671;43.220;0.064;2024-01-11T12:00:17;98659.44;;;7.41;55.03
83691;BME280;73671;43.220;0.064;2024-01-11T12:02:43;98655.59;;;7.39;54.09
83691;BME280;73671;43.220;0.064;2024-01-11T12:05:08;98650.22;;;7.32;55.17
83691;BME280;73671;43.220;0.064;2024-01-11T12:07:34;98647.94;;;7.27;55.34
83691;BME280;73671;43.220;0.064;2024-01-11T12:09:59;98646.44;;;7.15;55.69
83691;BME280;73671;43.220;0.064;2024-01-11T12:12:25;98654.19;;;7.13;55.71
83691;BME280;73671;43.220;0.064;2024-01-11T12:14:53;98643.81;;;7.00;54.98
83691;BME280;73671;43.220;0.064;2024-01-11T12:17:18;98641.94;;;6.83;55.66
83691;BME280;73671;43.220;0.064;2024-01-11T12:19:44;98646.22;;;6.80;55.78
83691;BME280;73671;43.220;0.064;2024-01-11T12:22:09;98648.56;;;6.71;56.37
83691;BME280;73671;43.220;0.064;2024-01-11T12:24:34;98649.34;;;6.68;56.81
83691;BME280;73671;43.220;0.064;2024-01-11T12:27:01;98641.63;;;6.67;56.29
83691;BME280;73671;43.220;0.064;2024-01-11T12:29:29;98639.72;;;6.67;56.59
83691;BME280;73671;43.220;0.064;2024-01-11T12:31:57;98637.75;;;6.68;56.18
83691;BME280;73671;43.220;0.064;2024-01-11T12:34:24;98637.38;;;6.66;56.59
83691;BME280;73671;43.220;0.064;2024-01-11T12:36:49;98635.84;;;6.65;56.88
83691;BME280;73671;43.220;0.064;2024-01-11T12:39:16;98633.53;;;6.59;56.47
83691;BME280;73671;43.220;0.064;2024-01-11T12:41:42;98629.69;;;6.61;56.97
83691;BME280;73671;43.220;0.064;2024-01-11T12:44:08;98623.13;;;6.51;56.69
83691;BME280;73671;43.220;0.064;2024-01-11T12:46:33;98622.72;;;6.52;56.94
83691;BME280;73671;43.220;0.064;2024-01-11T12:48:59;98621.16;;;6.58;56.54
83691;BME280;73671;43.220;0.064;2024-01-11T12:51:26;98624.66;;;6.63;55.82
83691;BME280;73671;43.220;0.064;2024-01-11T12:53:52;98626.97;;;6.61;56.36
83691;BME280;73671;43.220;0.064;2024-01-11T12:56:19;98622.31;;;6.65;56.09
83691;BME280;73671;43.220;0.064;2024-01-11T12:58:46;98625.00;;;6.68;56.39
83691;BME280;73671;43.220;0.064;2024-01-11T13:01:12;98630.03;;;6.66;56.30
83691;BME280;73671;43.220;0.064;2024-01-11T13:03:44;98631.19;;;6.69;56.38